Sierra-at-tahoe, California
Current Conditions -  °F | °C
As of 11:53 PM on Monday 26 Jan 2015 (Local Time) from KTVL Reporting Station
Overcast Overcast  
Wind Chill: 35°   Ceiling: 9000
Heat Index: 35°   Visibility: 10mi
Dew Point: 25°   Wind: 3mph
Humidity: 67%   Direction: 200°SSW
Pressure: 30.12"   Gusts: NA
Location:  38.77°N, 120.16°W
Report Text: KTVL 270753Z AUTO 20003KT 10SM OVC090 02/M04 A3012 RMK AO2 SLP172 T00171039 401561033
Loading
Personal Weather Stations






























Interactive Weather Map New forecast layout! Learn more

10-Day Weather Forecast

Advertisements
Track Severe Weather on mobile